Forside
METAR-TAF:

METAR-TAF

Lufthavne :

Lonesome Pine Airport

Wise, Virginia, USA

Breddekreds: 36-59N, længdekreds: 082-32W, højde: 817 m

Aktuelle vejr

Denne rapport blev lavet for 19 minutter siden, kl. 17:35 UTC
Vind 16 kt fra vestsydvest med vindstød på up til 22 kt
Temperatur 8°C
Fugtighed 39%
Tryk 1023 hPa
Sigt: 16.1 km
Overskyet i en højde af 10000 ft

METAR: KLNP 231735Z AUTO 24016G22KT 10SM OVC100 08/M05 A3021 RMK AO2

Tid: 12:54 (17:54 UTC)


TAF: fraværende

Vejrobservationer og prognoser fra mere end 4000 lufthavne (METAR og TAF).

De gule og røde prikker repræsenterer de meteorologiske stationer.

Flyt musen over at se navnet på stationen.

Så klik over at se vejr observationer og prognoser.

At skifte det kort: Klik på de grønne knapper med et sort kors for at zoome ind; på den grønne knap med en bindestreg for at zoome ud; eller på de grønne pile for tilstødende kort.


METAR-TAF: